createdAt,value
2022-10-28T00:01:24.976Z,22.70
2022-10-28T00:03:55.105Z,23.35
2022-10-28T00:06:33.733Z,23.70
2022-10-28T00:09:01.828Z,22.33
2022-10-28T00:11:31.840Z,23.58
2022-10-28T00:14:01.926Z,21.92
2022-10-28T00:16:31.689Z,22.13
2022-10-28T00:19:00.147Z,22.73
2022-10-28T00:21:30.178Z,22.73
2022-10-28T00:23:57.870Z,22.90
2022-10-28T00:26:27.686Z,24.40
2022-10-28T00:29:00.006Z,23.87
2022-10-28T00:31:29.291Z,24.10
2022-10-28T00:33:58.629Z,23.20
2022-10-28T00:36:34.322Z,25.00
2022-10-28T00:39:03.292Z,23.38
2022-10-28T00:41:33.989Z,24.27
2022-10-28T00:44:23.211Z,24.87
2022-10-28T00:46:53.194Z,23.92
2022-10-28T00:49:27.596Z,25.02
2022-10-28T00:52:01.255Z,24.17
2022-10-28T00:54:29.941Z,24.40
2022-10-28T00:56:58.215Z,24.25
2022-10-28T00:59:34.405Z,24.20
2022-10-28T01:02:02.195Z,25.08
2022-10-28T01:04:29.580Z,25.08
2022-10-28T01:06:57.464Z,24.30
2022-10-28T01:15:20.725Z,25.27
2022-10-28T01:17:56.297Z,24.37
2022-10-28T01:21:04.747Z,24.48
2022-10-28T01:23:35.993Z,24.45
2022-10-28T01:26:25.635Z,24.40
2022-10-28T01:29:08.407Z,23.58
2022-10-28T01:31:50.233Z,23.90
2022-10-28T01:34:37.834Z,24.30
2022-10-28T01:37:14.857Z,23.85
2022-10-28T01:39:47.937Z,23.62
2022-10-28T01:42:15.430Z,22.05
2022-10-28T01:45:02.602Z,23.50
2022-10-28T01:47:43.606Z,22.77
2022-10-28T01:50:25.223Z,23.33
2022-10-28T01:52:55.779Z,23.08
2022-10-28T01:55:29.311Z,24.15
2022-10-28T01:57:58.715Z,23.65
2022-10-28T02:00:26.473Z,23.58
2022-10-28T02:02:55.650Z,24.17
2022-10-28T02:05:46.766Z,24.73
2022-10-28T02:08:35.727Z,23.45
2022-10-28T02:11:34.767Z,22.92
2022-10-28T02:14:11.409Z,23.10
2022-10-28T02:16:44.370Z,22.95
2022-10-28T02:19:47.515Z,23.77
2022-10-28T02:22:17.646Z,23.77
2022-10-28T02:25:17.668Z,22.27
2022-10-28T02:27:50.315Z,21.75
2022-10-28T02:30:24.868Z,24.30
2022-10-28T02:32:56.683Z,23.50
2022-10-28T02:35:41.106Z,24.60
2022-10-28T02:38:11.631Z,24.73
2022-10-28T02:40:40.565Z,23.48
2022-10-28T02:43:09.991Z,24.85
2022-10-28T02:45:42.407Z,23.48
2022-10-28T02:48:16.362Z,25.02
2022-10-28T02:50:47.046Z,25.77
2022-10-28T02:53:19.527Z,26.17
2022-10-28T02:55:51.027Z,27.00
2022-10-28T02:58:19.054Z,26.90
2022-10-28T03:00:47.077Z,25.98
2022-10-28T03:03:14.414Z,26.55
2022-10-28T03:05:42.000Z,27.17
2022-10-28T03:08:09.323Z,26.73
2022-10-28T03:10:36.618Z,27.20
2022-10-28T03:13:04.158Z,26.67
2022-10-28T03:15:31.443Z,27.15
2022-10-28T03:17:58.755Z,26.00
2022-10-28T03:20:26.322Z,27.42
2022-10-28T03:22:53.795Z,25.52
2022-10-28T03:25:21.275Z,27.77
2022-10-28T03:27:48.858Z,27.40
2022-10-28T03:30:18.377Z,27.30
2022-10-28T03:32:45.669Z,28.92
2022-10-28T03:35:13.280Z,27.58
2022-10-28T03:37:44.086Z,26.25
2022-10-28T03:40:12.066Z,27.40
2022-10-28T03:42:42.772Z,26.52
2022-10-28T03:45:10.609Z,27.55
2022-10-28T03:47:37.902Z,26.92
2022-10-28T03:50:05.797Z,28.48
2022-10-28T03:52:33.099Z,28.17
2022-10-28T03:55:00.427Z,26.40
2022-10-28T03:57:31.427Z,28.67
2022-10-28T03:59:58.834Z,28.30
2022-10-28T04:02:26.761Z,28.98
2022-10-28T04:04:54.413Z,29.08
2022-10-28T04:07:21.958Z,28.98
2022-10-28T04:09:51.371Z,29.42
2022-10-28T04:12:19.203Z,30.70
2022-10-28T04:14:46.537Z,30.85
2022-10-28T04:17:13.900Z,29.37
2022-10-28T04:19:41.646Z,30.15
2022-10-28T04:22:09.698Z,30.25
2022-10-28T04:24:36.976Z,30.62
2022-10-28T04:27:04.569Z,30.92
2022-10-28T04:29:32.154Z,30.62
2022-10-28T04:31:59.595Z,30.90
2022-10-28T04:34:27.166Z,30.27
2022-10-28T04:36:54.453Z,31.35
2022-10-28T04:39:21.788Z,30.40
2022-10-28T04:41:49.651Z,31.08
2022-10-28T04:44:16.947Z,29.98
2022-10-28T04:46:44.316Z,29.30
2022-10-28T04:49:11.935Z,30.95
2022-10-28T04:51:39.279Z,28.65
2022-10-28T04:54:06.759Z,28.98
2022-10-28T04:56:34.338Z,29.20
2022-10-28T04:59:01.627Z,29.75
2022-10-28T05:01:29.032Z,31.45
2022-10-28T05:03:56.712Z,28.92
2022-10-28T05:06:24.061Z,30.33
2022-10-28T05:08:51.367Z,30.95
2022-10-28T05:11:18.954Z,30.42
2022-10-28T05:13:46.293Z,26.08
2022-10-28T05:16:13.595Z,29.67
2022-10-28T05:18:41.191Z,27.67
2022-10-28T05:21:08.519Z,28.25
2022-10-28T05:23:35.842Z,28.38
2022-10-28T05:26:03.498Z,28.42
2022-10-28T05:28:30.813Z,28.45
2022-10-28T05:30:58.138Z,27.45
2022-10-28T05:33:25.693Z,26.60
2022-10-28T05:35:53.005Z,26.05
2022-10-28T05:38:20.319Z,26.23
2022-10-28T05:40:47.882Z,27.70
2022-10-28T05:43:15.179Z,26.35
2022-10-28T05:45:42.523Z,26.80
2022-10-28T05:48:10.156Z,25.92
2022-10-28T05:50:37.528Z,25.55
2022-10-28T05:53:04.816Z,24.58
2022-10-28T05:55:32.412Z,25.40
2022-10-28T05:57:59.961Z,23.17
2022-10-28T06:00:27.350Z,24.48
2022-10-28T06:03:09.232Z,24.70
2022-10-28T06:05:37.963Z,23.13
2022-10-28T06:08:05.785Z,23.25
2022-10-28T06:10:33.475Z,20.83
2022-10-28T06:12:59.297Z,20.95
2022-10-28T06:15:26.883Z,21.30
2022-10-28T06:17:54.196Z,21.40
2022-10-28T06:20:21.517Z,21.27
2022-10-28T06:22:54.140Z,20.95
2022-10-28T06:25:22.652Z,20.42
2022-10-28T06:27:57.956Z,19.00
2022-10-28T06:30:26.287Z,20.02
2022-10-28T06:32:57.098Z,19.75
2022-10-28T06:35:24.380Z,19.95
2022-10-28T06:37:56.343Z,19.23
2022-10-28T06:43:05.340Z,18.10
2022-10-28T06:45:33.597Z,18.95
2022-10-28T06:48:04.904Z,18.25
2022-10-28T06:50:33.108Z,18.02
2022-10-28T06:53:00.965Z,17.83
2022-10-28T06:55:28.950Z,16.50
2022-10-28T06:58:00.486Z,17.27
2022-10-28T07:03:02.688Z,16.67
2022-10-28T07:05:30.375Z,16.05
2022-10-28T07:07:57.694Z,16.87
2022-10-28T07:10:25.095Z,15.10
2022-10-28T07:12:53.433Z,15.40
2022-10-28T07:15:21.653Z,17.05
2022-10-28T07:17:56.061Z,15.85
2022-10-28T07:20:26.130Z,15.68
2022-10-28T07:23:01.118Z,16.17
2022-10-28T07:25:31.818Z,14.35
2022-10-28T07:27:59.333Z,14.43
2022-10-28T07:30:27.915Z,15.65
2022-10-28T07:32:55.958Z,17.27
2022-10-28T07:35:23.535Z,16.27
2022-10-28T07:37:50.834Z,15.50
2022-10-28T07:40:20.434Z,16.50
2022-10-28T07:42:47.802Z,15.93
2022-10-28T07:45:15.262Z,16.33
2022-10-28T07:47:43.215Z,15.55
2022-10-28T07:50:11.380Z,16.83
2022-10-28T07:52:38.712Z,16.95
2022-10-28T07:55:07.701Z,15.35
2022-10-28T07:57:35.545Z,15.73
2022-10-28T08:00:04.706Z,15.25
2022-10-28T08:02:38.185Z,17.30
2022-10-28T08:05:06.298Z,16.62
2022-10-28T08:07:36.331Z,15.73
2022-10-28T08:10:06.936Z,17.73
2022-10-28T08:12:34.509Z,16.67
2022-10-28T08:15:02.678Z,16.25
2022-10-28T08:17:30.647Z,15.70
2022-10-28T08:19:58.092Z,14.63
2022-10-28T08:22:25.474Z,14.80
2022-10-28T08:24:53.050Z,14.60
2022-10-28T08:27:20.369Z,13.93
2022-10-28T08:29:47.692Z,13.98
2022-10-28T08:32:15.254Z,14.75
2022-10-28T08:34:43.709Z,13.62
2022-10-28T08:37:11.581Z,13.18
2022-10-28T08:39:40.704Z,14.05
2022-10-28T08:42:29.279Z,13.65
2022-10-28T08:45:21.334Z,12.90
2022-10-28T08:48:10.870Z,14.83
2022-10-28T08:50:46.422Z,14.27
2022-10-28T08:53:41.653Z,13.52
2022-10-28T08:56:46.154Z,13.50
2022-10-28T08:59:18.434Z,13.82
2022-10-28T09:04:42.222Z,13.52
2022-10-28T09:07:15.935Z,12.98
2022-10-28T09:09:43.250Z,12.85
2022-10-28T09:12:10.773Z,13.25
2022-10-28T09:14:44.359Z,12.05
2022-10-28T09:17:20.243Z,12.57
2022-10-28T09:19:52.760Z,12.73
2022-10-28T09:22:30.692Z,12.37
2022-10-28T09:25:01.767Z,12.77
2022-10-28T09:27:44.663Z,13.63
2022-10-28T09:33:50.828Z,11.80
2022-10-28T09:36:27.262Z,12.30
2022-10-28T09:38:56.609Z,13.68
2022-10-28T09:41:44.344Z,13.55
2022-10-28T09:44:20.032Z,13.25
2022-10-28T09:46:49.075Z,13.95
2022-10-28T09:49:21.348Z,15.48
2022-10-28T09:51:53.387Z,14.05
2022-10-28T09:54:29.025Z,15.40
2022-10-28T09:56:56.389Z,14.40
2022-10-28T09:59:26.819Z,14.57
2022-10-28T10:01:54.282Z,14.50
2022-10-28T10:04:23.888Z,13.77
2022-10-28T10:06:54.493Z,13.57
2022-10-28T10:09:25.797Z,13.07
2022-10-28T10:11:55.913Z,14.50
2022-10-28T10:15:05.653Z,13.65
2022-10-28T10:17:44.955Z,13.65
2022-10-28T10:20:18.388Z,12.60
2022-10-28T10:22:48.270Z,13.90
2022-10-28T10:25:18.575Z,12.93
2022-10-28T10:28:05.121Z,14.02
2022-10-28T10:30:40.307Z,14.00
2022-10-28T10:33:18.619Z,13.77
2022-10-28T10:35:57.799Z,12.98
2022-10-28T10:38:28.153Z,14.07
2022-10-28T10:40:55.832Z,14.27
2022-10-28T10:43:36.759Z,13.77
2022-10-28T10:46:15.893Z,13.75
2022-10-28T10:48:43.747Z,13.60
2022-10-28T10:51:24.298Z,13.40
2022-10-28T10:54:00.821Z,12.18
2022-10-28T10:56:30.552Z,12.43
2022-10-28T10:59:02.301Z,13.60
2022-10-28T11:01:38.797Z,13.10
2022-10-28T11:04:07.860Z,13.10
2022-10-28T11:06:39.946Z,13.60
2022-10-28T11:09:17.814Z,13.52
2022-10-28T11:11:45.414Z,13.43
2022-10-28T11:14:13.382Z,13.95
2022-10-28T11:16:54.583Z,13.82
2022-10-28T11:19:24.810Z,13.48
2022-10-28T11:22:06.713Z,13.70
2022-10-28T11:24:58.184Z,13.62
2022-10-28T11:27:39.182Z,13.93
2022-10-28T11:30:13.223Z,14.00
2022-10-28T11:33:02.210Z,14.43
2022-10-28T11:35:54.655Z,15.75
2022-10-28T11:38:43.272Z,13.90
2022-10-28T11:41:32.751Z,14.23
2022-10-28T11:44:05.007Z,14.77
2022-10-28T11:46:48.359Z,14.73
2022-10-28T11:49:59.113Z,15.07
2022-10-28T11:52:45.350Z,14.32
2022-10-28T11:55:27.316Z,14.60
2022-10-28T11:58:06.233Z,13.57
2022-10-28T12:00:42.294Z,15.07
2022-10-28T12:03:34.303Z,14.82
2022-10-28T12:06:07.336Z,14.47
2022-10-28T12:08:40.885Z,14.82
2022-10-28T12:11:26.851Z,15.73
2022-10-28T12:14:22.137Z,16.05
2022-10-28T12:17:03.846Z,16.12
2022-10-28T12:19:39.041Z,14.77
2022-10-28T12:22:28.009Z,15.18
2022-10-28T12:24:56.931Z,17.02
2022-10-28T12:27:28.786Z,20.55
2022-10-28T12:30:01.568Z,16.65
2022-10-28T12:32:31.765Z,15.80
2022-10-28T12:35:03.476Z,17.05
2022-10-28T12:37:47.811Z,16.33
2022-10-28T12:40:20.802Z,16.25
2022-10-28T12:42:52.576Z,17.80
2022-10-28T12:47:58.088Z,15.77
2022-10-28T12:50:32.300Z,12.80
2022-10-28T12:53:02.397Z,18.05
2022-10-28T12:55:42.872Z,17.77
2022-10-28T12:58:13.284Z,15.48
2022-10-28T13:00:43.951Z,21.40
2022-10-28T13:03:15.418Z,18.30
2022-10-28T13:06:12.451Z,16.65
2022-10-28T13:11:46.217Z,16.70
2022-10-28T13:14:27.832Z,16.30
2022-10-28T13:17:27.698Z,17.10
2022-10-28T13:20:07.698Z,16.20
2022-10-28T13:22:47.451Z,17.30
2022-10-28T13:25:20.633Z,16.05
2022-10-28T13:27:48.906Z,17.00
2022-10-28T13:30:17.743Z,18.30
2022-10-28T13:32:45.448Z,18.15
2022-10-28T13:35:16.323Z,17.83
2022-10-28T13:37:46.714Z,16.95
2022-10-28T13:40:34.509Z,17.48
2022-10-28T13:43:02.276Z,16.90
2022-10-28T13:45:49.491Z,22.83
2022-10-28T13:48:28.619Z,12.98
2022-10-28T13:51:11.331Z,17.00
2022-10-28T13:56:22.426Z,14.80
2022-10-28T13:58:51.932Z,15.95
2022-10-28T14:01:56.782Z,16.70
2022-10-28T14:04:38.039Z,17.80
2022-10-28T14:07:11.328Z,18.98
2022-10-28T14:12:33.171Z,18.48
2022-10-28T14:15:05.421Z,19.35
2022-10-28T14:17:46.213Z,17.80
2022-10-28T14:20:24.275Z,18.83
2022-10-28T14:22:52.944Z,18.70
2022-10-28T14:25:43.760Z,21.48
2022-10-28T14:28:29.553Z,19.55
2022-10-28T14:31:09.231Z,23.30
2022-10-28T14:33:49.987Z,20.77
2022-10-28T14:36:17.441Z,19.73
2022-10-28T14:39:12.157Z,19.08
2022-10-28T14:41:54.919Z,20.35
2022-10-28T14:44:39.822Z,22.80
2022-10-28T14:47:18.254Z,19.87
2022-10-28T14:49:58.640Z,20.33
2022-10-28T14:52:28.890Z,20.90
2022-10-28T14:54:58.683Z,21.15
2022-10-28T14:57:33.842Z,20.92
2022-10-28T15:00:05.636Z,20.75
2022-10-28T15:02:35.270Z,23.80
2022-10-28T15:05:14.992Z,24.02
2022-10-28T15:07:42.700Z,22.67
2022-10-28T15:10:26.914Z,21.48
2022-10-28T15:12:56.360Z,22.67
2022-10-28T15:15:32.221Z,24.52
2022-10-28T15:18:00.324Z,24.67
2022-10-28T15:20:33.399Z,22.73
2022-10-28T15:23:21.588Z,22.17
2022-10-28T15:26:12.790Z,21.00
2022-10-28T15:28:40.672Z,21.52
2022-10-28T15:31:08.903Z,22.08
2022-10-28T15:33:41.791Z,22.17
2022-10-28T15:36:24.434Z,23.17
2022-10-28T15:41:22.705Z,23.25
2022-10-28T15:43:58.808Z,21.70
2022-10-28T15:46:27.370Z,22.83
2022-10-28T15:48:56.552Z,22.75
2022-10-28T15:51:24.298Z,23.65
2022-10-28T15:53:54.093Z,23.52
2022-10-28T15:56:26.089Z,25.20
2022-10-28T16:01:38.120Z,23.15
2022-10-28T16:04:26.109Z,22.13
2022-10-28T16:06:57.595Z,21.73
2022-10-28T16:09:34.087Z,22.37
2022-10-28T16:12:14.396Z,25.42
2022-10-28T16:14:47.387Z,24.83
2022-10-28T16:17:23.004Z,26.48
2022-10-28T16:19:54.677Z,24.98
2022-10-28T16:22:23.737Z,25.37
2022-10-28T16:24:53.348Z,24.73
2022-10-28T16:27:22.687Z,24.80
2022-10-28T16:29:50.674Z,26.00
2022-10-28T16:32:25.186Z,26.62
2022-10-28T16:34:52.514Z,26.00
2022-10-28T16:37:23.180Z,27.65
2022-10-28T16:39:50.699Z,32.08
2022-10-28T16:42:19.604Z,29.25
2022-10-28T16:44:47.266Z,27.92
2022-10-28T16:47:19.486Z,32.13
2022-10-28T16:49:54.197Z,29.17
2022-10-28T16:52:29.143Z,27.80
2022-10-28T16:54:57.085Z,25.23
2022-10-28T16:59:57.301Z,26.27
2022-10-28T17:02:30.852Z,26.60
2022-10-28T17:04:58.898Z,27.02
2022-10-28T17:07:27.183Z,26.08
2022-10-28T17:09:54.603Z,29.02
2022-10-28T17:12:24.384Z,27.35
2022-10-28T17:14:51.709Z,28.48
2022-10-28T17:17:19.282Z,29.50
2022-10-28T17:19:46.977Z,32.72
2022-10-28T17:22:14.435Z,29.35
2022-10-28T17:24:41.736Z,28.62
2022-10-28T17:27:09.319Z,28.20
2022-10-28T17:29:36.690Z,31.12
2022-10-28T17:32:04.729Z,31.00
2022-10-28T17:34:32.469Z,29.42
2022-10-28T17:36:59.752Z,31.75
2022-10-28T17:39:27.040Z,29.25
2022-10-28T17:41:54.869Z,29.85
2022-10-28T17:44:22.222Z,28.50
2022-10-28T17:46:51.037Z,30.85
2022-10-28T17:49:18.718Z,32.80
2022-10-28T17:51:46.116Z,34.65
2022-10-28T17:54:13.543Z,31.05
2022-10-28T17:56:42.233Z,28.83
2022-10-28T17:59:09.762Z,29.87
2022-10-28T18:01:37.233Z,29.70
2022-10-28T18:04:06.118Z,28.02
2022-10-28T18:06:33.526Z,27.92
2022-10-28T18:09:01.104Z,24.98
2022-10-28T18:11:31.267Z,29.45
2022-10-28T18:13:58.661Z,28.40
2022-10-28T18:16:28.055Z,28.62
2022-10-28T18:18:56.113Z,30.25
2022-10-28T18:21:24.455Z,29.70
2022-10-28T18:23:52.966Z,29.00
2022-10-28T18:26:21.097Z,29.33
2022-10-28T18:28:49.059Z,30.02
2022-10-28T18:31:18.447Z,31.58
2022-10-28T18:33:46.624Z,31.58
2022-10-28T18:36:19.170Z,30.73
2022-10-28T18:38:47.082Z,29.85
2022-10-28T18:41:22.140Z,33.00
2022-10-28T18:43:57.123Z,29.87
2022-10-28T18:46:25.566Z,30.05
2022-10-28T18:48:53.550Z,30.62
2022-10-28T18:51:20.918Z,32.65
2022-10-28T18:53:49.243Z,32.17
2022-10-28T18:56:18.874Z,30.83
2022-10-28T18:58:49.177Z,30.23
2022-10-28T19:01:22.424Z,29.63
2022-10-28T19:04:00.676Z,30.37
2022-10-28T19:06:32.340Z,30.95
2022-10-28T19:09:02.210Z,32.17
2022-10-28T19:11:31.490Z,31.83
2022-10-28T19:14:00.693Z,32.63
2022-10-28T19:16:28.704Z,32.70
2022-10-28T19:18:57.466Z,32.50
2022-10-28T19:21:25.797Z,29.27
2022-10-28T19:23:53.121Z,35.78
2022-10-28T19:26:20.892Z,35.40
2022-10-28T19:28:49.300Z,33.67
2022-10-28T19:31:19.220Z,31.05
2022-10-28T19:33:46.832Z,30.35
2022-10-28T19:36:25.380Z,29.23
2022-10-28T19:38:53.779Z,28.48
2022-10-28T19:41:23.832Z,29.40
2022-10-28T19:43:58.049Z,26.17
2022-10-28T19:46:28.132Z,26.05
2022-10-28T19:48:57.394Z,27.73
2022-10-28T19:51:27.375Z,26.40
2022-10-28T19:53:57.125Z,26.40
2022-10-28T19:56:24.980Z,27.37
2022-10-28T19:58:54.263Z,26.42
2022-10-28T20:01:23.330Z,27.67
2022-10-28T20:03:51.791Z,26.83
2022-10-28T20:06:22.593Z,28.38
2022-10-28T20:08:50.304Z,28.05
2022-10-28T20:11:38.083Z,25.98
2022-10-28T20:14:12.259Z,27.35
2022-10-28T20:16:42.535Z,27.37
2022-10-28T20:19:10.731Z,26.42
2022-10-28T20:21:38.273Z,26.75
2022-10-28T20:24:06.874Z,29.55
2022-10-28T20:26:36.006Z,28.20
2022-10-28T20:29:03.608Z,29.33
2022-10-28T20:31:32.165Z,29.37
2022-10-28T20:34:03.440Z,30.10
2022-10-28T20:36:36.552Z,28.20
2022-10-28T20:39:10.847Z,28.75
2022-10-28T20:41:39.430Z,27.87
2022-10-28T20:44:07.093Z,26.50
2022-10-28T20:46:35.146Z,23.30
2022-10-28T20:49:02.998Z,25.67
2022-10-28T20:51:31.835Z,27.23
2022-10-28T20:53:59.296Z,25.23
2022-10-28T20:56:29.089Z,24.85
2022-10-28T20:58:57.780Z,25.23
2022-10-28T21:01:30.229Z,24.85
2022-10-28T21:04:00.631Z,23.17
2022-10-28T21:06:29.109Z,23.67
2022-10-28T21:08:56.953Z,23.67
2022-10-28T21:11:25.123Z,26.23
2022-10-28T21:13:54.869Z,25.60
2022-10-28T21:16:22.676Z,26.08
2022-10-28T21:18:50.318Z,27.73
2022-10-28T21:21:18.947Z,27.15
2022-10-28T21:23:47.154Z,27.10
2022-10-28T21:26:14.748Z,28.10
2022-10-28T21:28:42.062Z,29.52
2022-10-28T21:31:14.348Z,27.23
2022-10-28T21:33:42.936Z,26.05
2022-10-28T21:36:20.844Z,24.45
2022-10-28T21:38:48.543Z,23.77
2022-10-28T21:41:19.920Z,23.17
2022-10-28T21:43:49.718Z,22.62
2022-10-28T21:46:18.064Z,21.85
2022-10-28T21:48:45.694Z,22.35
2022-10-28T21:51:15.361Z,22.33
2022-10-28T21:53:43.959Z,22.48
2022-10-28T21:56:18.221Z,23.23
2022-10-28T21:58:47.754Z,21.95
2022-10-28T22:01:20.572Z,22.35
2022-10-28T22:03:48.405Z,22.90
2022-10-28T22:06:15.781Z,22.20
2022-10-28T22:08:43.095Z,21.92
2022-10-28T22:11:15.782Z,22.75
2022-10-28T22:13:43.340Z,22.98
2022-10-28T22:16:12.925Z,23.00
2022-10-28T22:18:40.576Z,23.27
2022-10-28T22:21:11.474Z,22.23
2022-10-28T22:23:39.306Z,23.60
2022-10-28T22:26:08.966Z,22.45
2022-10-28T22:28:36.791Z,23.25
2022-10-28T22:31:06.934Z,22.42
2022-10-28T22:33:34.328Z,24.50
2022-10-28T22:36:04.596Z,22.60
2022-10-28T22:38:32.528Z,23.60
2022-10-28T22:41:07.209Z,23.33
2022-10-28T22:43:34.777Z,23.02
2022-10-28T22:46:02.729Z,22.87
2022-10-28T22:48:30.940Z,23.85
2022-10-28T22:50:59.134Z,22.85
2022-10-28T22:53:26.568Z,22.67
2022-10-28T22:55:54.290Z,22.73
2022-10-28T22:58:23.133Z,22.33
2022-10-28T23:00:50.775Z,22.50
2022-10-28T23:03:18.297Z,22.75
2022-10-28T23:05:46.031Z,23.17
2022-10-28T23:08:16.302Z,23.62
2022-10-28T23:10:43.629Z,21.90
2022-10-28T23:13:12.264Z,22.83
2022-10-28T23:15:39.572Z,20.85
2022-10-28T23:18:06.942Z,24.33
2022-10-28T23:20:35.706Z,23.70
2022-10-28T23:23:03.013Z,24.85
2022-10-28T23:25:30.545Z,22.65
2022-10-28T23:27:58.347Z,23.30
2022-10-28T23:30:25.926Z,23.92
2022-10-28T23:32:53.255Z,23.35
2022-10-28T23:35:20.819Z,23.25
2022-10-28T23:37:48.109Z,24.15
2022-10-28T23:40:15.569Z,23.75
2022-10-28T23:42:43.164Z,24.45
2022-10-28T23:45:10.492Z,24.40
2022-10-28T23:47:37.836Z,24.92
2022-10-28T23:50:05.500Z,26.12
2022-10-28T23:52:32.809Z,27.10
2022-10-28T23:55:00.106Z,26.83
2022-10-28T23:57:27.646Z,28.90
2022-10-28T23:59:54.946Z,28.80
